Time;durP1;ratioP1;P1;durP2;ratioP2;P2;SDS_P1;SDS_P2;PMS_P1;PMS_P2;Temp;Humidity;BMP_temperature;BMP_pressure;BME280_temperature;BME280_humidity;BME280_pressure;Samples;Min_cycle;Max_cycle;Signal;HPM_P1;HPM_P2
2021/12/18 00:03:53;;;;;;;23.57;22.27;;;;;;;9.84;90.71;103920.19;10400655;28;20228;-80
2021/12/18 00:08:55;;;;;;;23.60;22.40;;;;;;;9.66;90.70;103893.84;10402181;28;20220;-81
2021/12/18 00:13:57;;;;;;;24.13;22.70;;;;;;;9.81;90.60;103920.25;10402432;28;20233;-80
2021/12/18 00:19:00;;;;;;;23.93;22.53;;;;;;;9.84;91.01;103927.34;10401029;28;20207;-80
2021/12/18 00:24:02;;;;;;;23.20;21.90;;;;;;;8.91;90.49;103760.00;10397550;28;20739;-80
2021/12/18 00:29:04;;;;;;;22.70;21.50;;;;;;;9.71;90.58;103910.66;10397778;28;20286;-80
2021/12/18 00:34:07;;;;;;;22.30;21.10;;;;;;;9.61;91.29;103885.06;10398811;28;20235;-80
2021/12/18 00:39:08;;;;;;;24.07;22.67;;;;;;;9.73;90.52;103906.16;10404841;28;20208;-80
2021/12/18 00:44:12;;;;;;;23.67;22.37;;;;;;;9.57;90.39;103886.00;10402476;28;20287;-80
2021/12/18 00:49:18;;;;;;;24.03;22.60;;;;;;;9.57;91.06;103878.88;10400918;28;20246;-80
2021/12/18 00:54:20;;;;;;;24.83;23.27;;;;;;;9.68;90.75;103890.25;10410256;28;20250;-80
2021/12/18 00:59:22;;;;;;;24.60;23.20;;;;;;;9.71;90.96;103894.63;10409558;28;20211;-81
2021/12/18 01:04:26;;;;;;;25.33;23.63;;;;;;;9.48;91.28;103852.38;10405282;28;20612;-80
2021/12/18 01:09:43;;;;;;;26.73;25.03;;;;;;;9.58;91.01;103871.75;10411287;28;20226;-80
2021/12/18 01:15:00;;;;;;;25.17;23.60;;;;;;;9.31;91.60;103829.53;10409727;28;20207;-80
2021/12/18 01:25:23;;;;;;;24.80;23.27;;;;;;;9.74;91.86;103897.25;10408274;28;20576;-80
2021/12/18 01:30:25;;;;;;;25.60;24.00;;;;;;;9.73;91.21;103899.03;10405154;28;20243;-80
2021/12/18 01:35:29;;;;;;;25.53;23.93;;;;;;;9.19;91.65;103813.72;10406431;28;20223;-80
2021/12/18 01:40:31;;;;;;;26.00;24.40;;;;;;;9.74;91.64;103905.28;10407057;28;20224;-81
2021/12/18 01:45:49;;;;;;;25.47;23.97;;;;;;;9.71;90.88;103899.97;10407813;28;20201;-80
2021/12/18 01:56:12;;;;;;;24.73;23.33;;;;;;;8.98;91.22;103788.31;10403632;28;20199;-80
2021/12/18 02:01:15;;;;;;;23.60;22.20;;;;;;;9.54;91.75;103893.16;10404847;28;20220;-80
2021/12/18 02:06:20;;;;;;;23.47;22.07;;;;;;;9.25;90.88;103852.75;10403973;28;20219;-80
2021/12/18 02:11:29;;;;;;;24.47;23.00;;;;;;;9.15;91.69;103831.59;10403096;28;20234;-81
2021/12/18 02:21:52;;;;;;;23.30;22.00;;;;;;;9.63;90.67;103884.09;10400467;28;20284;-81
2021/12/18 02:26:53;;;;;;;24.23;22.67;;;;;;;9.43;90.97;103851.56;10401041;28;20247;-80
2021/12/18 02:31:55;;;;;;;22.10;20.90;;;;;;;9.56;91.28;103882.44;10396928;28;20915;-81
2021/12/18 02:37:03;;;;;;;23.80;22.40;;;;;;;9.57;91.13;103878.88;10399004;28;20212;-80
2021/12/18 02:42:12;;;;;;;24.43;23.03;;;;;;;9.59;90.94;103870.84;10400390;28;20903;-81
2021/12/18 02:47:14;;;;;;;23.63;22.23;;;;;;;9.25;91.61;103815.41;10395638;28;20775;-81
2021/12/18 02:52:18;;;;;;;23.87;22.50;;;;;;;9.43;91.35;103835.56;10397782;28;20240;-80
2021/12/18 02:57:20;;;;;;;24.27;22.77;;;;;;;9.36;91.31;103810.75;10392429;28;20237;-80
2021/12/18 03:02:22;;;;;;;24.07;22.77;;;;;;;9.69;91.36;103861.75;10399601;28;20255;-81
2021/12/18 03:07:27;;;;;;;23.70;22.37;;;;;;;9.69;90.97;103854.63;10402005;28;20244;-80
2021/12/18 03:23:27;;;;;;;25.30;23.90;;;;;;;9.66;91.23;103857.38;10407316;28;20216;-84
2021/12/18 03:28:30;;;;;;;25.80;24.23;;;;;;;9.57;90.92;103846.88;10415488;28;20324;-85
2021/12/18 03:33:32;;;;;;;27.27;25.27;;;;;;;9.42;91.10;103829.34;10404356;28;20306;-83
2021/12/18 03:38:35;;;;;;;26.00;24.40;;;;;;;9.38;90.91;103834.75;10415615;28;20672;-85
2021/12/18 03:43:37;;;;;;;26.53;24.93;;;;;;;9.40;90.86;103820.50;10416271;28;20625;-85
2021/12/18 03:48:38;;;;;;;25.67;24.00;;;;;;;9.64;91.70;103872.50;10409736;28;20262;-85
2021/12/18 03:53:41;;;;;;;25.53;23.93;;;;;;;9.61;91.44;103843.22;10411381;28;20259;-84
2021/12/18 03:58:43;;;;;;;26.40;24.70;;;;;;;9.67;91.42;103850.25;10409866;28;20208;-84
2021/12/18 04:03:45;;;;;;;27.40;25.70;;;;;;;9.63;91.10;103841.41;10408011;28;20282;-85
2021/12/18 04:08:48;;;;;;;25.93;24.43;;;;;;;9.24;91.33;103793.22;10416354;28;20223;-85
2021/12/18 04:13:50;;;;;;;26.20;24.60;;;;;;;9.09;91.52;103754.38;10417016;28;20224;-85
2021/12/18 04:18:51;;;;;;;26.53;24.83;;;;;;;9.53;91.45;103837.13;10412385;28;20208;-84
2021/12/18 04:23:54;;;;;;;25.63;24.13;;;;;;;9.60;90.93;103841.44;10420703;28;20235;-85
2021/12/18 04:28:56;;;;;;;26.73;25.00;;;;;;;9.62;91.05;103850.31;10422213;28;20235;-85
2021/12/18 04:33:58;;;;;;;26.27;24.57;;;;;;;9.60;91.53;103853.94;10421513;28;20232;-85
2021/12/18 04:39:02;;;;;;;26.90;25.23;;;;;;;9.59;91.21;103858.38;10419673;28;20203;-85
2021/12/18 04:44:05;;;;;;;28.07;26.17;;;;;;;9.60;91.19;103851.25;10420854;28;20200;-84
2021/12/18 04:49:07;;;;;;;30.27;28.17;;;;;;;9.60;91.44;103854.78;10417564;28;20212;-83
2021/12/18 04:54:10;;;;;;;28.53;26.63;;;;;;;9.57;91.71;103859.31;10416913;28;20321;-84
2021/12/18 04:59:12;;;;;;;25.67;24.17;;;;;;;9.55;90.88;103862.03;10416520;28;20212;-85
2021/12/18 05:04:14;;;;;;;26.33;24.63;;;;;;;9.54;91.35;103865.59;10420364;28;20254;-85
2021/12/18 05:09:18;;;;;;;25.57;24.07;;;;;;;9.22;91.71;103823.50;10419732;28;20239;-85
2021/12/18 05:14:21;;;;;;;26.17;24.47;;;;;;;9.54;91.39;103873.59;10423007;28;20707;-85
2021/12/18 05:19:23;;;;;;;25.53;23.93;;;;;;;8.62;91.74;103734.75;10421372;28;20942;-85
2021/12/18 05:24:26;;;;;;;23.97;22.53;;;;;;;9.48;91.87;103887.94;10421161;28;20204;-84
2021/12/18 05:29:27;;;;;;;23.60;22.30;;;;;;;9.12;91.34;103841.44;10424554;28;20314;-85
2021/12/18 05:34:36;;;;;;;23.63;22.17;;;;;;;9.07;91.08;103832.63;10424583;28;20311;-84
2021/12/18 05:39:39;;;;;;;22.90;21.60;;;;;;;9.41;91.79;103885.41;10421074;28;20208;-84
2021/12/18 05:44:41;;;;;;;21.27;20.17;;;;;;;9.33;91.53;103880.19;10415764;28;20219;-85
2021/12/18 05:49:43;;;;;;;22.27;21.17;;;;;;;9.11;91.74;103839.66;10418341;28;20208;-85
2021/12/18 05:54:46;;;;;;;21.60;20.50;;;;;;;9.35;91.33;103892.59;10417720;28;20250;-84
2021/12/18 05:59:47;;;;;;;20.57;19.57;;;;;;;9.34;91.18;103884.59;10417254;28;20204;-85
2021/12/18 06:04:49;;;;;;;21.43;20.23;;;;;;;9.32;91.27;103876.66;10416715;28;20447;-85
2021/12/18 06:09:52;;;;;;;22.20;21.10;;;;;;;8.94;91.17;103823.94;10423456;28;20215;-84
2021/12/18 06:14:54;;;;;;;22.07;20.97;;;;;;;8.06;90.71;103664.59;10423460;28;20325;-84
2021/12/18 06:19:56;;;;;;;21.93;20.73;;;;;;;8.06;91.12;103667.25;10421578;28;20209;-85
2021/12/18 06:24:59;;;;;;;21.70;20.67;;;;;;;9.07;91.20;103843.28;10416753;28;20602;-85
2021/12/18 06:30:01;;;;;;;21.97;20.80;;;;;;;8.74;90.91;103786.97;10416583;28;20707;-84
2021/12/18 06:35:04;;;;;;;21.70;20.53;;;;;;;9.11;90.89;103853.88;10415624;28;20224;-85
2021/12/18 06:40:08;;;;;;;22.83;21.63;;;;;;;8.96;91.31;103839.00;10417316;28;20208;-84
2021/12/18 06:45:12;;;;;;;22.27;21.10;;;;;;;9.24;90.84;103859.00;10419901;28;20667;-85
2021/12/18 06:50:13;;;;;;;23.53;22.17;;;;;;;9.24;90.69;103877.69;10414313;28;20216;-85
2021/12/18 06:55:17;;;;;;;23.97;22.67;;;;;;;8.01;90.22;103655.81;10414160;28;20224;-85
2021/12/18 07:00:20;;;;;;;23.30;21.97;;;;;;;9.17;90.00;103866.22;10421776;28;20208;-85
2021/12/18 07:05:22;;;;;;;22.17;20.90;;;;;;;8.87;90.25;103851.59;10419612;28;20228;-85
2021/12/18 07:10:26;;;;;;;23.00;21.63;;;;;;;9.03;90.49;103857.59;10418368;28;20208;-84
2021/12/18 07:15:27;;;;;;;22.60;21.33;;;;;;;8.74;90.30;103822.50;10423254;28;20232;-83
2021/12/18 07:20:29;;;;;;;23.10;21.77;;;;;;;9.06;90.38;103879.75;10425047;28;20209;-85
2021/12/18 07:25:32;;;;;;;22.43;21.17;;;;;;;8.68;90.51;103824.34;10421870;28;20204;-84
2021/12/18 07:30:34;;;;;;;25.33;21.73;;;;;;;8.99;89.74;103885.22;10425114;28;20298;-84
2021/12/18 07:35:36;;;;;;;30.13;21.47;;;;;;;8.50;89.63;103838.84;10417504;28;20212;-85
2021/12/18 07:40:39;;;;;;;22.83;20.73;;;;;;;8.86;90.19;103881.84;10422589;28;20212;-85
2021/12/18 07:45:41;;;;;;;22.37;20.90;;;;;;;8.58;89.72;103843.13;10422112;28;20227;-86
2021/12/18 07:50:42;;;;;;;24.13;21.33;;;;;;;8.79;89.29;103873.03;10425780;28;20226;-85
2021/12/18 07:55:45;;;;;;;22.10;20.70;;;;;;;8.76;90.36;103879.31;10424049;28;20288;-85
2021/12/18 08:00:47;;;;;;;22.00;20.70;;;;;;;8.73;89.43;103892.66;10416675;28;20229;-85
2021/12/18 08:05:49;;;;;;;22.23;20.93;;;;;;;8.37;90.36;103846.97;10423276;28;20222;-84
2021/12/18 08:10:52;;;;;;;20.27;19.27;;;;;;;8.69;89.24;103898.06;10427364;28;20201;-84
2021/12/18 08:15:54;;;;;;;20.33;19.33;;;;;;;8.65;89.21;103899.91;10413184;28;20670;-85
2021/12/18 08:20:56;;;;;;;20.97;19.97;;;;;;;7.79;89.50;103765.19;10425502;28;20212;-84
2021/12/18 08:25:59;;;;;;;20.60;19.60;;;;;;;8.53;88.58;103895.63;10424584;28;20266;-84
2021/12/18 08:31:02;;;;;;;20.17;19.17;;;;;;;7.60;89.23;103740.59;10424786;28;20230;-85
2021/12/18 08:36:05;;;;;;;20.30;19.30;;;;;;;8.52;89.29;103907.16;10426278;28;20220;-85
2021/12/18 08:41:09;;;;;;;20.23;19.00;;;;;;;7.99;89.48;103826.16;10428293;28;20725;-86
2021/12/18 08:46:11;;;;;;;19.30;18.40;;;;;;;8.50;89.61;103908.09;10428366;28;20652;-85
2021/12/18 08:51:12;;;;;;;19.97;18.97;;;;;;;8.47;89.44;103910.78;10413881;28;20220;-85
2021/12/18 08:56:16;;;;;;;20.23;19.23;;;;;;;7.31;89.52;103707.25;10424331;28;20212;-85
2021/12/18 09:01:17;;;;;;;19.67;18.77;;;;;;;8.47;88.96;103910.78;10425924;28;20216;-85
2021/12/18 09:06:19;;;;;;;19.90;19.00;;;;;;;7.29;89.14;103714.38;10428989;28;20251;-84
2021/12/18 09:11:23;;;;;;;20.60;19.60;;;;;;;7.95;89.51;103838.63;10430097;28;20621;-85
2021/12/18 09:16:26;;;;;;;21.10;20.00;;;;;;;8.09;89.31;103842.91;10431431;28;20200;-84
2021/12/18 09:21:28;;;;;;;19.83;18.93;;;;;;;8.51;89.43;103907.19;10427858;28;20258;-86
2021/12/18 09:26:31;;;;;;;20.17;19.17;;;;;;;8.36;90.11;103881.59;10429306;28;20271;-86
2021/12/18 09:31:33;;;;;;;19.33;18.40;;;;;;;8.54;89.48;103910.69;10428489;28;20226;-84
2021/12/18 09:36:35;;;;;;;19.37;18.47;;;;;;;8.53;88.79;103900.06;10431105;28;20218;-84
2021/12/18 09:41:38;;;;;;;19.20;18.40;;;;;;;7.89;89.50;103792.56;10430869;28;20312;-85
2021/12/18 09:46:41;;;;;;;19.00;18.10;;;;;;;8.08;90.00;103809.19;10430062;28;20214;-84
2021/12/18 09:51:43;;;;;;;18.77;17.97;;;;;;;8.19;89.43;103829.47;10433352;28;20285;-84
2021/12/18 09:56:47;;;;;;;19.17;18.37;;;;;;;8.42;89.49;103873.59;10432510;28;20204;-86
2021/12/18 10:01:50;;;;;;;18.60;17.80;;;;;;;8.44;88.58;103868.22;10424373;28;20224;-86
2021/12/18 10:06:52;;;;;;;19.33;18.43;;;;;;;8.19;88.82;103820.56;10425555;28;20211;-85
2021/12/18 10:11:57;;;;;;;18.53;17.73;;;;;;;8.23;89.32;103814.31;10423118;28;20270;-85
2021/12/18 10:16:59;;;;;;;18.87;18.00;;;;;;;8.66;89.00;103884.78;10425042;28;21117;-86
2021/12/18 10:22:04;;;;;;;19.57;18.67;;;;;;;7.88;88.51;103767.75;10433085;28;20196;-85
2021/12/18 10:27:18;;;;;;;18.90;18.00;;;;;;;8.66;88.02;103883.00;10430768;28;20660;-85
2021/12/18 10:32:22;;;;;;;18.83;17.93;;;;;;;8.55;88.95;103869.84;10424358;28;20716;-86
2021/12/18 10:37:25;;;;;;;20.27;19.27;;;;;;;8.64;88.91;103876.81;10429069;28;20200;-85
2021/12/18 10:42:30;;;;;;;19.40;18.50;;;;;;;7.44;88.98;103676.09;10430620;28;20584;-84
2021/12/18 10:48:03;;;;;;;19.10;18.20;;;;;;;8.71;88.87;103888.28;10430674;28;20211;-86
2021/12/18 10:53:08;;;;;;;19.00;18.10;;;;;;;8.73;88.35;103884.66;10325495;28;20216;-86
2021/12/18 10:58:14;;;;;;;19.00;18.10;;;;;;;8.74;88.38;103877.59;10431583;28;20836;-85
2021/12/18 11:03:20;;;;;;;20.93;19.93;;;;;;;8.74;87.55;103881.13;10425581;28;20735;-85
2021/12/18 11:08:22;;;;;;;20.13;19.20;;;;;;;8.74;88.69;103878.47;10422912;28;20216;-86
2021/12/18 11:13:45;;;;;;;19.90;18.90;;;;;;;8.77;87.93;103873.06;10431643;28;20723;-85
2021/12/18 11:18:48;;;;;;;20.37;19.37;;;;;;;8.79;88.26;103869.50;10424619;28;20207;-85
2021/12/18 11:23:55;;;;;;;18.87;18.07;;;;;;;8.67;88.56;103847.47;10424048;28;20291;-85
2021/12/18 11:29:01;;;;;;;19.13;18.23;;;;;;;8.82;89.09;103862.34;10428162;28;20224;-83
2021/12/18 11:34:03;;;;;;;19.97;18.97;;;;;;;8.83;88.99;103863.22;10422754;28;20233;-85
2021/12/18 11:39:05;;;;;;;19.97;19.03;;;;;;;8.81;89.09;103855.25;10427003;28;20201;-85
2021/12/18 11:44:33;;;;;;;19.90;18.90;;;;;;;8.55;88.76;103803.25;10428688;28;20551;-85
2021/12/18 11:49:54;;;;;;;19.43;18.53;;;;;;;8.83;87.49;103852.56;10427860;28;20208;-84
2021/12/18 11:54:57;;;;;;;19.83;18.93;;;;;;;8.47;88.15;103796.25;10427277;28;20456;-85
2021/12/18 12:00:01;;;;;;;20.70;19.60;;;;;;;8.87;89.04;103835.59;10429176;28;20200;-84
2021/12/18 12:05:05;;;;;;;20.30;19.40;;;;;;;8.88;87.82;103832.94;10424186;28;20225;-85
2021/12/18 12:10:19;;;;;;;19.93;18.93;;;;;;;8.87;88.27;103831.19;10426441;28;20211;-85
2021/12/18 12:15:24;;;;;;;19.80;18.90;;;;;;;8.87;88.10;103819.63;10425494;28;20247;-85
2021/12/18 12:20:35;;;;;;;19.27;18.37;;;;;;;8.72;87.64;103799.41;10425001;28;20513;-85
2021/12/18 12:25:43;;;;;;;19.03;18.23;;;;;;;8.85;88.45;103811.63;10424169;28;20210;-85
2021/12/18 12:30:50;;;;;;;19.93;19.03;;;;;;;8.87;87.66;103811.63;10424236;28;20314;-85
2021/12/18 12:36:07;;;;;;;20.40;19.50;;;;;;;8.87;87.45;103809.84;10421673;28;20223;-86
2021/12/18 12:41:34;;;;;;;20.50;19.50;;;;;;;8.87;87.90;103799.19;10425142;28;20227;-85
2021/12/18 12:46:37;;;;;;;20.80;19.80;;;;;;;8.65;87.48;103755.16;10424072;28;20613;-84
2021/12/18 12:52:02;;;;;;;20.43;19.43;;;;;;;8.89;87.68;103780.50;10429027;28;20212;-85
2021/12/18 12:57:39;;;;;;;20.37;19.47;;;;;;;8.89;87.45;103783.16;10425810;28;20626;-85
2021/12/18 13:02:53;;;;;;;19.40;18.57;;;;;;;8.89;87.34;103786.72;10427354;28;20231;-84
2021/12/18 13:07:56;;;;;;;19.30;18.40;;;;;;;8.72;88.11;103754.13;10424825;28;20211;-84
2021/12/18 13:13:02;;;;;;;19.97;18.97;;;;;;;8.86;87.23;103772.56;10421214;28;20225;-84
2021/12/18 13:18:10;;;;;;;20.03;19.03;;;;;;;8.85;88.28;103774.31;10424342;28;20281;-84
2021/12/18 13:23:17;;;;;;;21.07;19.97;;;;;;;8.86;87.23;103762.78;10426096;28;20272;-84
2021/12/18 13:28:20;;;;;;;20.77;19.77;;;;;;;8.87;87.58;103763.66;10427244;28;20240;-84
2021/12/18 13:33:28;;;;;;;21.27;20.17;;;;;;;8.91;88.66;103757.34;10424037;28;20331;-84
2021/12/18 13:38:35;;;;;;;21.57;20.47;;;;;;;8.21;87.63;103652.81;10417569;28;20212;-84
2021/12/18 13:43:37;;;;;;;21.53;20.53;;;;;;;8.93;88.52;103750.22;10424229;28;20227;-83
2021/12/18 13:48:42;;;;;;;21.33;20.33;;;;;;;8.30;88.25;103642.03;10426543;28;20213;-84
2021/12/18 13:53:52;;;;;;;21.87;20.77;;;;;;;8.45;88.12;103672.88;10427231;28;20228;-84
2021/12/18 13:58:54;;;;;;;20.90;19.90;;;;;;;8.92;88.54;103743.13;10423210;28;20204;-84
2021/12/18 14:03:59;;;;;;;21.97;20.77;;;;;;;8.74;87.27;103709.69;10425954;28;20233;-84
2021/12/18 14:09:08;;;;;;;21.23;20.10;;;;;;;8.63;87.60;103696.56;10419142;28;20201;-84
2021/12/18 14:14:12;;;;;;;21.60;20.50;;;;;;;8.91;88.31;103734.25;10417486;28;20244;-82
2021/12/18 14:19:26;;;;;;;21.17;20.10;;;;;;;8.82;88.56;103721.09;10415756;28;20224;-83
2021/12/18 14:24:28;;;;;;;21.43;20.43;;;;;;;8.91;87.84;103742.25;10415643;28;20204;-84
2021/12/18 14:29:32;;;;;;;20.80;19.80;;;;;;;8.68;87.92;103720.44;10413735;28;20228;-83
2021/12/18 14:34:36;;;;;;;20.73;19.73;;;;;;;8.89;87.18;103738.75;10414855;28;20600;-83
2021/12/18 14:39:51;;;;;;;21.23;20.23;;;;;;;8.87;87.15;103739.66;10418654;28;20208;-83
2021/12/18 14:44:56;;;;;;;21.40;20.20;;;;;;;8.76;87.35;103737.19;10412094;28;20237;-83
2021/12/18 14:50:13;;;;;;;20.43;19.50;;;;;;;8.86;87.38;103762.78;10416946;28;20327;-84
2021/12/18 14:55:15;;;;;;;20.87;19.87;;;;;;;8.83;87.04;103745.94;10418718;28;20228;-84
2021/12/18 15:00:22;;;;;;;20.97;19.97;;;;;;;8.79;87.73;103737.13;10411633;28;20200;-82
2021/12/18 15:05:25;;;;;;;20.80;19.80;;;;;;;8.50;87.54;103695.88;10414372;28;20220;-83
2021/12/18 15:10:27;;;;;;;20.83;19.83;;;;;;;8.49;87.33;103682.56;10417233;28;20208;-84
2021/12/18 15:15:29;;;;;;;20.43;19.40;;;;;;;8.60;87.50;103727.69;10413659;28;20235;-82
2021/12/18 15:20:32;;;;;;;21.87;20.83;;;;;;;8.70;87.50;103746.19;10417647;28;20580;-83
2021/12/18 15:25:34;;;;;;;54.70;52.30;;;;;;;9.03;86.58;103754.47;10401937;28;21007;-84
2021/12/18 15:30:35;;;;;;;22.83;21.63;;;;;;;8.82;87.21;103757.53;10399152;28;20239;-83
2021/12/18 15:35:38;;;;;;;22.33;21.23;;;;;;;8.55;86.68;103723.31;10415920;28;20809;-83
2021/12/18 15:40:41;;;;;;;22.97;21.77;;;;;;;8.68;86.75;103749.75;10419340;28;20208;-83
2021/12/18 15:45:42;;;;;;;22.80;21.60;;;;;;;8.70;87.48;103755.94;10411535;28;20208;-83
2021/12/18 15:50:46;;;;;;;23.80;22.60;;;;;;;8.20;86.93;103667.91;10418412;28;20208;-83
2021/12/18 15:55:47;;;;;;;24.83;23.47;;;;;;;8.68;87.16;103741.75;10413719;28;20228;-84
2021/12/18 16:00:50;;;;;;;25.27;23.77;;;;;;;8.12;88.02;103643.22;10418650;28;20250;-83
2021/12/18 16:05:53;;;;;;;25.73;24.23;;;;;;;8.65;87.89;103748.03;10409909;28;20215;-84
2021/12/18 16:10:55;;;;;;;25.23;23.73;;;;;;;7.40;87.89;103550.28;10415841;28;20204;-84
2021/12/18 16:15:57;;;;;;;24.00;22.70;;;;;;;8.32;87.52;103702.31;10408524;28;20220;-83
2021/12/18 16:21:01;;;;;;;23.93;22.53;;;;;;;8.55;87.42;103743.72;10412463;28;20203;-83
2021/12/18 16:26:03;;;;;;;23.20;21.90;;;;;;;8.36;87.63;103720.03;10413165;28;20231;-84
2021/12/18 16:31:05;;;;;;;25.00;23.60;;;;;;;8.48;87.25;103742.09;10421366;28;20606;-83
2021/12/18 16:36:14;;;;;;;24.17;22.87;;;;;;;8.45;87.01;103740.34;10418121;28;20228;-84
2021/12/18 16:41:19;;;;;;;24.07;22.77;;;;;;;8.34;87.83;103723.63;10423026;28;20213;-83
2021/12/18 16:46:22;;;;;;;24.20;22.90;;;;;;;8.39;87.91;103740.41;10415017;28;20197;-82
2021/12/18 16:51:25;;;;;;;25.27;23.87;;;;;;;8.41;87.77;103751.03;10419987;28;20216;-83
2021/12/18 16:56:27;;;;;;;25.20;23.80;;;;;;;7.06;87.88;103504.66;10421589;28;20240;-84
2021/12/18 17:01:28;;;;;;;25.97;24.47;;;;;;;8.41;87.75;103735.06;10419762;28;20220;-84
2021/12/18 17:06:32;;;;;;;24.43;23.03;;;;;;;7.78;87.66;103641.94;10423845;28;20212;-83
2021/12/18 17:11:33;;;;;;;24.40;22.90;;;;;;;8.31;87.04;103724.56;10417062;28;20299;-83
2021/12/18 17:16:35;;;;;;;25.20;23.63;;;;;;;8.15;87.38;103713.22;10419921;28;20224;-83
2021/12/18 17:21:38;;;;;;;26.50;24.90;;;;;;;8.27;87.38;103738.81;10418385;28;20212;-83
2021/12/18 17:26:40;;;;;;;27.50;25.70;;;;;;;8.29;88.94;103739.69;10416814;28;20259;-84
2021/12/18 17:31:41;;;;;;;28.17;26.20;;;;;;;7.02;87.88;103516.22;10419436;28;20227;-84
2021/12/18 17:36:46;;;;;;;28.90;27.00;;;;;;;8.31;88.60;103737.00;10416711;28;20596;-83
2021/12/18 17:41:48;;;;;;;30.67;28.30;;;;;;;8.30;88.33;103732.56;10415344;28;20319;-83
2021/12/18 17:46:50;;;;;;;30.33;27.87;;;;;;;8.29;88.74;103723.69;10418858;28;20200;-83
2021/12/18 17:51:53;;;;;;;31.27;28.73;;;;;;;8.29;89.11;103726.38;10415861;28;20207;-83
2021/12/18 17:56:55;;;;;;;30.97;28.67;;;;;;;7.98;88.33;103676.22;10420332;28;20228;-82
2021/12/18 18:01:57;;;;;;;32.20;29.70;;;;;;;8.31;88.64;103735.19;10419250;28;20255;-83
2021/12/18 18:07:01;;;;;;;33.07;30.17;;;;;;;8.10;88.80;103698.22;10412499;28;20216;-83
2021/12/18 18:12:03;;;;;;;34.60;31.60;;;;;;;8.36;89.25;103743.09;10423003;28;20644;-82
2021/12/18 18:17:05;;;;;;;35.07;31.90;;;;;;;8.17;89.03;103705.22;10420725;28;20220;-82
2021/12/18 18:22:08;;;;;;;36.23;32.87;;;;;;;8.02;89.89;103668.19;10415407;28;20323;-83
2021/12/18 18:27:10;;;;;;;36.40;33.10;;;;;;;7.64;89.81;103604.00;10419365;28;20242;-83
2021/12/18 18:32:11;;;;;;;36.97;33.70;;;;;;;8.25;89.29;103699.78;10413288;28;20228;-83
2021/12/18 18:37:16;;;;;;;36.37;33.00;;;;;;;8.43;89.00;103735.94;10415217;28;20234;-82
2021/12/18 18:42:17;;;;;;;37.90;34.40;;;;;;;8.42;89.54;103724.44;10414167;28;20319;-84
2021/12/18 18:47:25;;;;;;;38.03;34.43;;;;;;;8.44;90.01;103730.59;10416749;28;20222;-83
2021/12/18 18:52:29;;;;;;;35.63;32.43;;;;;;;8.44;89.54;103719.97;10414200;28;20203;-83
2021/12/18 18:57:30;;;;;;;38.77;35.07;;;;;;;8.44;90.27;103719.97;10416370;28;20232;-83
2021/12/18 19:02:32;;;;;;;40.47;36.27;;;;;;;7.94;89.45;103631.06;10420161;28;20227;-83
2021/12/18 19:07:35;;;;;;;41.63;37.33;;;;;;;8.29;90.37;103682.88;10412027;28;20213;-83
2021/12/18 19:12:37;;;;;;;40.87;36.73;;;;;;;7.71;89.51;103571.09;10421297;28;20203;-83
2021/12/18 19:17:39;;;;;;;41.10;36.80;;;;;;;8.33;90.40;103669.47;10415674;28;20325;-83
2021/12/18 19:22:44;;;;;;;41.20;36.47;;;;;;;8.48;90.50;103694.16;10408370;28;20205;-83
2021/12/18 19:27:46;;;;;;;40.77;35.90;;;;;;;7.88;89.82;103589.44;10413867;28;20229;-83
2021/12/18 19:32:49;;;;;;;43.33;38.13;;;;;;;7.84;90.05;103579.75;10407467;28;20228;-84
2021/12/18 19:37:54;;;;;;;42.73;38.13;;;;;;;8.26;90.75;103642.97;10441575;28;20309;-84
2021/12/18 19:42:56;;;;;;;41.13;35.97;;;;;;;8.42;90.72;103675.59;10481026;28;20202;-84
2021/12/18 19:47:58;;;;;;;39.60;34.83;;;;;;;8.42;90.22;103667.59;10486778;28;20203;-83
2021/12/18 19:53:01;;;;;;;39.17;34.50;;;;;;;8.58;90.87;103677.97;10485709;28;20746;-84
2021/12/18 19:58:03;;;;;;;38.73;34.13;;;;;;;8.62;90.73;103691.25;10490432;28;20812;-84
2021/12/18 20:04:31;;;;;;;44.17;37.00;;;;;;;8.63;90.81;103693.00;10483268;28;20238;-84
2021/12/18 20:08:30;;;;;;;42.47;37.33;;;;;;;8.44;90.64;103647.13;10479308;28;20221;-84
2021/12/18 20:13:32;;;;;;;54.37;39.87;;;;;;;8.66;90.18;103679.63;10485891;28;20214;-84
2021/12/18 20:18:33;;;;;;;50.83;40.93;;;;;;;8.48;91.42;103648.88;10483511;28;20209;-84
2021/12/18 20:23:36;;;;;;;50.80;39.93;;;;;;;8.67;90.66;103663.63;10475290;28;20209;-82
2021/12/18 20:28:38;;;;;;;39.60;35.17;;;;;;;8.61;91.21;103658.41;10474095;28;20658;-83
2021/12/18 20:33:40;;;;;;;41.83;35.30;;;;;;;7.91;90.83;103525.56;10471241;28;20241;-84
2021/12/18 20:38:45;;;;;;;36.83;32.63;;;;;;;8.67;91.43;103655.63;10475161;28;20246;-84
2021/12/18 20:43:47;;;;;;;36.37;32.27;;;;;;;8.51;90.42;103633.72;10467093;28;20203;-84
2021/12/18 20:48:51;;;;;;;36.17;32.60;;;;;;;8.69;90.76;103664.47;10477626;28;20213;-83
2021/12/18 20:53:54;;;;;;;34.27;30.53;;;;;;;8.71;90.48;103664.44;10477849;28;20228;-83
2021/12/18 20:58:56;;;;;;;34.30;30.80;;;;;;;8.71;90.45;103667.97;10478812;28;20214;-84
2021/12/18 21:03:59;;;;;;;35.93;31.30;;;;;;;8.48;91.34;103627.56;10478318;28;20218;-83
2021/12/18 21:09:06;;;;;;;33.60;30.17;;;;;;;8.69;91.25;103664.47;10486659;28;20215;-82
2021/12/18 21:14:09;;;;;;;33.67;30.37;;;;;;;8.70;91.60;103668.00;10481256;28;20226;-83
2021/12/18 21:19:13;;;;;;;35.83;32.23;;;;;;;8.53;91.63;103636.31;10490298;28;20203;-83
2021/12/18 21:24:17;;;;;;;35.30;31.77;;;;;;;8.55;91.22;103656.72;10482448;28;20211;-83
2021/12/18 21:29:18;;;;;;;34.13;30.93;;;;;;;8.69;91.20;103666.25;10484610;28;20322;-83
2021/12/18 21:36:35;;;;;;;36.97;32.97;;;;;;;8.62;91.47;103633.50;10489077;28;20232;-83
2021/12/18 21:39:46;;;;;;;36.37;32.47;;;;;;;8.51;90.91;103616.84;10491201;28;20217;-82
2021/12/18 21:44:48;;;;;;;36.60;32.63;;;;;;;8.69;90.52;103650.28;10485115;28;20218;-84
2021/12/18 21:49:50;;;;;;;36.83;33.03;;;;;;;8.24;91.44;103576.44;10483768;28;20694;-83
2021/12/18 21:54:53;;;;;;;38.67;33.43;;;;;;;8.68;90.63;103656.50;10486022;28;20219;-83
2021/12/18 21:59:55;;;;;;;36.90;33.00;;;;;;;8.69;91.89;103655.59;10480301;28;20282;-83
2021/12/18 22:04:56;;;;;;;38.17;33.97;;;;;;;8.68;91.08;103654.72;10476905;28;20218;-82
2021/12/18 22:09:59;;;;;;;37.27;33.30;;;;;;;8.33;91.67;103594.91;10483570;28;20215;-83
2021/12/18 22:15:01;;;;;;;41.93;35.07;;;;;;;8.67;91.24;103655.63;10487788;28;20808;-83
2021/12/18 22:20:03;;;;;;;38.63;34.53;;;;;;;8.56;91.76;103639.81;10486027;28;20199;-83
2021/12/18 22:25:08;;;;;;;45.73;35.70;;;;;;;8.53;91.00;103625.66;10481448;28;20215;-83
2021/12/18 22:30:11;;;;;;;37.20;33.30;;;;;;;8.43;91.58;103603.66;10483160;28;20227;-83
2021/12/18 22:35:13;;;;;;;43.10;35.17;;;;;;;8.65;91.93;103640.59;10488426;28;20227;-84
2021/12/18 22:40:16;;;;;;;47.90;35.53;;;;;;;8.51;91.74;103616.84;10486406;28;20227;-83
2021/12/18 22:45:18;;;;;;;40.40;35.30;;;;;;;8.46;90.69;103590.28;10480460;28;20206;-84
2021/12/18 22:50:20;;;;;;;42.17;36.00;;;;;;;8.63;90.80;103621.09;10483394;28;20203;-83
2021/12/18 22:55:23;;;;;;;47.13;36.27;;;;;;;8.62;90.96;103619.31;10484111;28;20223;-83
2021/12/18 23:00:58;;;;;;;39.97;34.73;;;;;;;8.63;91.17;103621.94;10481133;28;20257;-83
2021/12/18 23:06:01;;;;;;;40.53;33.90;;;;;;;8.51;91.03;103603.50;10460083;28;20211;-83
2021/12/18 23:11:15;;;;;;;38.07;32.53;;;;;;;8.50;91.66;103596.44;10489615;28;20317;-84
2021/12/18 23:16:26;;;;;;;36.20;32.27;;;;;;;7.71;91.95;103455.84;10487606;28;20233;-83
2021/12/18 23:21:28;;;;;;;36.73;32.53;;;;;;;8.65;91.69;103611.28;10482961;28;20233;-82
2021/12/18 23:26:33;;;;;;;37.63;31.97;;;;;;;8.51;91.10;103592.84;10485614;28;20249;-82
2021/12/18 23:31:36;;;;;;;34.87;31.60;;;;;;;8.53;91.85;103599.94;10481693;28;20227;-84